Time;durP1;ratioP1;P1;durP2;ratioP2;P2;SDS_P1;SDS_P2;PMS_P1;PMS_P2;Temp;Humidity;BMP_temperature;BMP_pressure;BME280_temperature;BME280_humidity;BME280_pressure;Samples;Min_cycle;Max_cycle;Signal;HPM_P1;HPM_P2
2023/06/30 00:00:42;;;;;;;11.02;4.53;;;25.40;82.80;;;;;;5090828;28;20043;-67
2023/06/30 00:03:47;;;;;;;11.38;4.45;;;25.40;82.80;;;;;;5091233;28;20047;-67
2023/06/30 00:06:50;;;;;;;8.98;4.35;;;25.30;82.90;;;;;;5090701;28;20063;-66
2023/06/30 00:09:54;;;;;;;11.35;4.20;;;25.20;82.50;;;;;;5090905;28;20039;-68
2023/06/30 00:12:58;;;;;;;6.05;3.75;;;25.10;82.90;;;;;;5090708;28;20043;-66
2023/06/30 00:16:02;;;;;;;7.28;3.45;;;25.10;82.40;;;;;;5091066;28;20047;-66
2023/06/30 00:19:08;;;;;;;8.95;4.10;;;25.00;82.20;;;;;;5091128;28;20046;-66
2023/06/30 00:22:11;;;;;;;9.75;4.05;;;24.90;82.50;;;;;;5091286;28;20115;-67
2023/06/30 00:25:15;;;;;;;7.53;3.78;;;24.90;82.80;;;;;;5095269;28;20396;-66
2023/06/30 00:28:19;;;;;;;7.07;3.92;;;24.70;83.30;;;;;;5094813;28;20134;-66
2023/06/30 00:31:23;;;;;;;6.80;4.20;;;24.60;83.80;;;;;;5093986;28;20058;-67
2023/06/30 00:34:28;;;;;;;6.25;4.15;;;24.60;83.90;;;;;;5094896;28;20503;-67
2023/06/30 00:37:31;;;;;;;9.55;4.45;;;24.70;84.00;;;;;;5094649;28;20047;-66
2023/06/30 00:40:35;;;;;;;11.13;4.32;;;24.70;83.90;;;;;;5094149;28;20387;-66
2023/06/30 00:43:39;;;;;;;8.52;3.90;;;24.60;83.90;;;;;;5094659;28;20043;-66
2023/06/30 00:46:44;;;;;;;6.93;3.88;;;24.50;84.10;;;;;;5093615;28;20395;-66
2023/06/30 00:49:48;;;;;;;8.93;4.35;;;24.50;83.30;;;;;;5094515;28;20050;-66
2023/06/30 00:52:52;;;;;;;8.68;4.13;;;24.60;83.10;;;;;;5094785;28;20388;-66
2023/06/30 00:55:56;;;;;;;10.32;4.10;;;24.40;83.40;;;;;;5093701;28;20090;-67
2023/06/30 00:59:00;;;;;;;8.07;3.67;;;24.40;82.90;;;;;;5093474;28;20398;-66
2023/06/30 01:02:24;;;;;;;7.38;3.30;;;24.30;83.30;;;;;;5094298;28;20051;-66
2023/06/30 01:05:56;;;;;;;9.18;3.92;;;24.20;83.60;;;;;;5094558;28;20039;-66
2023/06/30 01:09:12;;;;;;;5.90;3.80;;;24.10;84.00;;;;;;5099517;28;20659;-67
2023/06/30 01:12:17;;;;;;;6.95;3.83;;;24.00;84.20;;;;;;5094290;28;20051;-67
2023/06/30 01:15:22;;;;;;;5.80;3.70;;;24.00;83.60;;;;;;5094425;28;20039;-67
2023/06/30 01:18:26;;;;;;;6.47;3.50;;;24.10;83.30;;;;;;5094041;28;20222;-66
2023/06/30 01:21:31;;;;;;;5.95;3.85;;;24.00;83.10;;;;;;5094312;28;20177;-66
2023/06/30 01:24:36;;;;;;;7.78;3.75;;;23.90;83.10;;;;;;5094001;28;20047;-65
2023/06/30 01:27:40;;;;;;;13.27;4.13;;;24.00;83.50;;;;;;5093721;28;20075;-65
2023/06/30 01:30:46;;;;;;;12.65;4.03;;;24.10;83.70;;;;;;5093899;28;20047;-66
2023/06/30 01:33:50;;;;;;;10.27;3.83;;;24.20;83.70;;;;;;5093249;28;20047;-66
2023/06/30 01:36:54;;;;;;;8.70;4.03;;;24.20;84.00;;;;;;5094017;28;20047;-66
2023/06/30 01:40:00;;;;;;;5.93;3.55;;;24.20;84.10;;;;;;5092829;28;20059;-66
2023/06/30 01:43:04;;;;;;;9.63;4.18;;;24.20;84.30;;;;;;5093702;28;20039;-66
2023/06/30 01:46:09;;;;;;;8.23;3.80;;;24.20;84.70;;;;;;5093590;28;20051;-67
2023/06/30 01:49:13;;;;;;;8.43;4.63;;;24.00;85.10;;;;;;5092926;28;20372;-66
2023/06/30 01:52:18;;;;;;;8.20;4.18;;;23.90;85.30;;;;;;5092655;28;20230;-67
2023/06/30 01:55:22;;;;;;;10.85;4.13;;;23.80;85.40;;;;;;5092806;28;20503;-66
2023/06/30 01:58:31;;;;;;;6.05;4.00;;;23.80;85.70;;;;;;5092610;28;20098;-67
2023/06/30 02:01:35;;;;;;;8.57;3.90;;;23.80;85.90;;;;;;5093208;28;20047;-67
2023/06/30 02:04:39;;;;;;;7.00;4.25;;;23.80;85.70;;;;;;5092516;28;20047;-67
2023/06/30 02:07:43;;;;;;;13.00;4.00;;;23.90;85.40;;;;;;5093051;28;20403;-65
2023/06/30 02:10:46;;;;;;;7.97;3.78;;;23.90;85.90;;;;;;5092090;28;20400;-67
2023/06/30 02:13:50;;;;;;;12.30;4.47;;;23.90;85.60;;;;;;5092101;28;20055;-67
2023/06/30 02:16:54;;;;;;;11.27;4.80;;;23.90;86.50;;;;;;5092818;28;20050;-67
2023/06/30 02:19:59;;;;;;;7.82;4.20;;;23.90;86.00;;;;;;5093006;28;20067;-67
2023/06/30 02:23:03;;;;;;;7.32;4.28;;;23.80;85.30;;;;;;5092901;28;20495;-67
2023/06/30 02:26:06;;;;;;;6.35;4.05;;;23.90;85.30;;;;;;5092030;28;20051;-67
2023/06/30 02:29:10;;;;;;;9.13;4.05;;;23.90;85.70;;;;;;5092054;28;20051;-67
2023/06/30 02:32:15;;;;;;;7.75;3.75;;;23.90;86.20;;;;;;5092647;28;20039;-66
2023/06/30 02:35:19;;;;;;;8.13;4.28;;;23.90;85.80;;;;;;5092385;28;20046;-66
2023/06/30 02:38:23;;;;;;;16.52;4.47;;;23.90;86.10;;;;;;5092374;28;20067;-66
2023/06/30 02:41:27;;;;;;;11.45;4.05;;;23.90;85.70;;;;;;5092297;28;20042;-66
2023/06/30 02:44:34;;;;;;;8.43;4.13;;;23.90;85.80;;;;;;5091321;28;20035;-66
2023/06/30 02:47:38;;;;;;;8.98;4.60;;;23.90;85.70;;;;;;5092223;28;20075;-67
2023/06/30 02:50:43;;;;;;;10.18;4.63;;;23.80;86.20;;;;;;5091505;28;20035;-67
2023/06/30 02:53:49;;;;;;;10.15;4.95;;;23.80;86.90;;;;;;5091740;28;20038;-67
2023/06/30 02:56:53;;;;;;;8.32;4.72;;;23.70;87.50;;;;;;5092335;28;20035;-66
2023/06/30 02:59:57;;;;;;;13.88;6.75;;;23.70;87.90;;;;;;5091424;28;20047;-66
2023/06/30 03:03:01;;;;;;;13.85;6.90;;;23.60;88.10;;;;;;5091263;28;20035;-66
2023/06/30 03:06:05;;;;;;;13.70;6.38;;;23.60;89.10;;;;;;5091176;28;20039;-66
2023/06/30 03:09:12;;;;;;;14.52;6.55;;;23.50;89.50;;;;;;5091318;28;20039;-66
2023/06/30 03:12:16;;;;;;;8.57;5.72;;;23.50;89.90;;;;;;5091125;28;20047;-67
2023/06/30 03:15:20;;;;;;;14.10;5.55;;;23.50;89.80;;;;;;5091765;28;20383;-66
2023/06/30 03:18:25;;;;;;;9.23;5.18;;;23.60;89.30;;;;;;5091286;28;20050;-67
2023/06/30 03:21:29;;;;;;;9.63;5.78;;;23.70;89.00;;;;;;5091186;28;20043;-66
2023/06/30 03:24:33;;;;;;;15.73;6.25;;;23.50;89.40;;;;;;5091205;28;20051;-66
2023/06/30 03:27:37;;;;;;;12.88;5.97;;;23.40;89.30;;;;;;5090674;28;20368;-67
2023/06/30 03:30:41;;;;;;;14.95;5.55;;;23.20;90.00;;;;;;5091044;28;20047;-66
2023/06/30 03:33:46;;;;;;;9.23;5.95;;;23.20;89.50;;;;;;5079331;28;20042;-67
2023/06/30 03:36:50;;;;;;;11.38;5.45;;;23.20;89.40;;;;;;5090722;28;20039;-67
2023/06/30 03:39:55;;;;;;;12.63;5.07;;;23.30;88.80;;;;;;5090615;28;20051;-66
2023/06/30 03:42:59;;;;;;;9.93;5.82;;;23.40;89.20;;;;;;5090810;28;20039;-66
2023/06/30 03:46:03;;;;;;;14.38;6.43;;;23.50;89.10;;;;;;5091382;28;20039;-66
2023/06/30 03:49:07;;;;;;;13.05;5.95;;;23.60;89.40;;;;;;5091453;28;20589;-66
2023/06/30 03:52:12;;;;;;;11.82;6.18;;;23.60;89.50;;;;;;5090409;28;20055;-67
2023/06/30 03:55:18;;;;;;;11.40;6.63;;;23.70;89.70;;;;;;5090525;28;20054;-67
2023/06/30 03:58:22;;;;;;;14.43;7.22;;;23.60;90.00;;;;;;5091420;28;20050;-67
2023/06/30 04:01:26;;;;;;;10.50;6.70;;;23.60;90.20;;;;;;5091508;28;20051;-67
2023/06/30 04:04:31;;;;;;;13.35;6.60;;;23.60;90.10;;;;;;5091338;28;20042;-67
2023/06/30 04:07:35;;;;;;;16.42;7.25;;;23.50;90.40;;;;;;5091127;28;20071;-68
2023/06/30 04:10:39;;;;;;;16.08;6.65;;;23.40;90.60;;;;;;5091336;28;20043;-67
2023/06/30 04:13:43;;;;;;;13.30;6.75;;;23.40;90.70;;;;;;5091246;28;20043;-67
2023/06/30 04:16:47;;;;;;;13.10;6.53;;;23.20;90.50;;;;;;5091190;28;20051;-67
2023/06/30 04:19:51;;;;;;;15.48;7.15;;;23.00;90.90;;;;;;5091723;28;20047;-67
2023/06/30 04:22:55;;;;;;;12.85;6.90;;;23.20;90.90;;;;;;5090946;28;20395;-67
2023/06/30 04:26:00;;;;;;;13.02;6.50;;;23.30;90.80;;;;;;5090786;28;20039;-67
2023/06/30 04:29:04;;;;;;;11.82;6.63;;;23.40;90.60;;;;;;5090850;28;20055;-66
2023/06/30 04:32:08;;;;;;;12.57;6.72;;;23.60;90.40;;;;;;5090858;28;20051;-66
2023/06/30 04:35:12;;;;;;;15.60;6.53;;;23.60;90.30;;;;;;5090719;28;20396;-67
2023/06/30 04:38:19;;;;;;;13.45;7.10;;;23.80;90.30;;;;;;5090590;28;20051;-67
2023/06/30 04:41:23;;;;;;;17.77;6.30;;;23.90;90.30;;;;;;5090930;28;20383;-66
2023/06/30 04:44:27;;;;;;;14.35;7.25;;;24.00;90.20;;;;;;5090002;28;20042;-66
2023/06/30 04:47:31;;;;;;;15.93;7.13;;;23.90;90.30;;;;;;5090449;28;20529;-66
2023/06/30 04:50:36;;;;;;;16.88;6.53;;;24.00;90.30;;;;;;5090464;28;20495;-66
2023/06/30 04:53:40;;;;;;;19.05;6.03;;;24.00;89.90;;;;;;5090804;28;20494;-66
2023/06/30 04:56:44;;;;;;;18.90;5.55;;;24.10;88.20;;;;;;5090699;28;20418;-66
2023/06/30 04:59:50;;;;;;;15.70;5.93;;;24.20;88.30;;;;;;5089579;28;20050;-67
2023/06/30 05:02:56;;;;;;;23.80;6.90;;;24.20;88.10;;;;;;5090817;28;20043;-66
2023/06/30 05:06:00;;;;;;;14.98;9.40;;;24.30;88.10;;;;;;5090577;28;20043;-67
2023/06/30 05:09:04;;;;;;;18.70;7.65;;;24.50;88.40;;;;;;5092070;28;20071;-67
2023/06/30 05:12:08;;;;;;;22.15;6.85;;;24.70;87.50;;;;;;5094392;28;20047;-67
2023/06/30 05:15:12;;;;;;;11.32;6.20;;;25.00;86.60;;;;;;5094256;28;20043;-64
2023/06/30 05:18:16;;;;;;;16.35;6.53;;;25.30;86.90;;;;;;5094213;28;20047;-63
2023/06/30 05:21:19;;;;;;;18.65;6.90;;;25.60;85.40;;;;;;5093886;28;20051;-63
2023/06/30 05:24:24;;;;;;;27.75;7.28;;;25.80;84.30;;;;;;5094152;28;20047;-64
2023/06/30 05:27:28;;;;;;;40.05;7.80;;;25.90;83.90;;;;;;5093914;28;20605;-63
2023/06/30 05:30:31;;;;;;;25.80;7.97;;;26.10;83.40;;;;;;5094285;28;20051;-64
2023/06/30 05:33:35;;;;;;;18.63;7.45;;;26.30;83.30;;;;;;5093895;28;20047;-63
2023/06/30 05:36:39;;;;;;;26.42;7.50;;;26.50;82.90;;;;;;5093899;28;20063;-63
2023/06/30 05:39:43;;;;;;;31.35;8.23;;;26.80;82.70;;;;;;5093832;28;20051;-65
2023/06/30 05:42:47;;;;;;;17.15;6.78;;;27.00;82.00;;;;;;5094034;28;20640;-64
2023/06/30 05:45:51;;;;;;;18.85;6.75;;;27.20;81.40;;;;;;5093526;28;20047;-63
2023/06/30 05:48:55;;;;;;;21.92;8.10;;;27.40;80.90;;;;;;5093624;28;20059;-64
2023/06/30 05:51:59;;;;;;;29.40;13.23;;;27.60;80.40;;;;;;5093367;28;20551;-63
2023/06/30 05:55:04;;;;;;;23.05;9.38;;;27.70;80.70;;;;;;5093269;28;20051;-63
2023/06/30 05:58:08;;;;;;;19.45;7.32;;;27.90;80.80;;;;;;5093443;28;20395;-63
2023/06/30 06:01:12;;;;;;;27.38;6.78;;;28.10;80.20;;;;;;5093476;28;20055;-64
2023/06/30 06:04:18;;;;;;;16.38;6.63;;;28.00;79.90;;;;;;5093521;28;20039;-63
2023/06/30 06:07:22;;;;;;;12.95;6.15;;;28.00;78.80;;;;;;5093351;28;20094;-63
2023/06/30 06:10:26;;;;;;;14.75;6.85;;;27.80;78.80;;;;;;5093517;28;20387;-64
2023/06/30 06:13:38;;;;;;;14.75;5.97;;;27.80;79.70;;;;;;5092984;28;20047;-63
2023/06/30 06:16:44;;;;;;;18.38;6.90;;;27.90;79.00;;;;;;5092906;28;20047;-66
2023/06/30 06:19:48;;;;;;;17.45;6.93;;;28.20;79.60;;;;;;5092060;28;20039;-67
2023/06/30 06:22:52;;;;;;;19.10;7.80;;;28.40;79.20;;;;;;5092867;28;20043;-66
2023/06/30 06:25:56;;;;;;;15.35;7.82;;;28.40;80.00;;;;;;5092861;28;20047;-67
2023/06/30 06:29:00;;;;;;;15.50;7.93;;;28.50;80.30;;;;;;5092669;28;20403;-66
2023/06/30 06:32:04;;;;;;;19.25;8.18;;;28.70;80.20;;;;;;5092666;28;20039;-67
2023/06/30 06:35:08;;;;;;;19.20;7.95;;;29.00;80.80;;;;;;5092601;28;20083;-67
2023/06/30 06:38:16;;;;;;;21.52;8.65;;;29.20;80.10;;;;;;5092406;28;20055;-66
2023/06/30 06:41:20;;;;;;;22.88;8.98;;;29.30;80.20;;;;;;5091687;28;20161;-67
2023/06/30 06:44:24;;;;;;;29.38;8.65;;;29.50;80.30;;;;;;5092803;28;20093;-66
2023/06/30 06:48:06;;;;;;;17.85;7.32;;;29.80;79.70;;;;;;5092387;28;20051;-66
2023/06/30 06:51:10;;;;;;;22.02;8.60;;;30.00;79.70;;;;;;5092206;28;20041;-67
2023/06/30 06:54:14;;;;;;;30.70;9.00;;;30.30;79.00;;;;;;5092199;28;20047;-67
2023/06/30 06:57:18;;;;;;;23.95;8.65;;;30.40;77.80;;;;;;5092284;28;20046;-67
2023/06/30 07:00:22;;;;;;;25.38;8.77;;;30.30;78.50;;;;;;5092462;28;20059;-67
2023/06/30 07:03:26;;;;;;;24.50;7.88;;;30.50;77.70;;;;;;5092388;28;20735;-66
2023/06/30 07:06:30;;;;;;;19.48;6.93;;;30.60;78.00;;;;;;5092145;28;20426;-69
2023/06/30 07:09:34;;;;;;;14.40;6.80;;;30.60;78.60;;;;;;5091967;28;20063;-65
2023/06/30 07:12:38;;;;;;;15.57;7.63;;;30.80;78.40;;;;;;5092103;28;20498;-66
2023/06/30 07:15:42;;;;;;;21.00;8.20;;;31.10;77.80;;;;;;5091822;28;20511;-66
2023/06/30 07:18:45;;;;;;;24.00;8.57;;;31.20;78.00;;;;;;5091834;28;20047;-66
2023/06/30 07:22:08;;;;;;;19.70;7.72;;;31.30;77.70;;;;;;5091836;28;20549;-67
2023/06/30 07:25:13;;;;;;;24.25;8.32;;;31.40;77.60;;;;;;5091696;28;20395;-66
2023/06/30 07:28:17;;;;;;;19.67;7.88;;;31.60;77.60;;;;;;5091525;28;20055;-66
2023/06/30 07:31:21;;;;;;;17.48;8.38;;;31.60;77.60;;;;;;5091261;28;20513;-66
2023/06/30 07:34:25;;;;;;;16.77;7.72;;;31.70;78.00;;;;;;5091761;28;20047;-67
2023/06/30 07:37:29;;;;;;;16.80;10.00;;;31.80;77.50;;;;;;5091145;28;20055;-67
2023/06/30 07:40:34;;;;;;;13.32;7.88;;;31.90;77.00;;;;;;5091300;28;20058;-68
2023/06/30 07:43:37;;;;;;;12.55;7.25;;;32.00;76.80;;;;;;5091427;28;20209;-67
2023/06/30 07:46:41;;;;;;;11.43;7.57;;;32.10;76.30;;;;;;5091546;28;20047;-66
2023/06/30 07:49:45;;;;;;;22.63;7.03;;;32.20;75.40;;;;;;5091614;28;20047;-66
2023/06/30 07:52:49;;;;;;;15.15;7.00;;;32.10;73.80;;;;;;5091649;28;20043;-66
2023/06/30 07:55:53;;;;;;;13.32;6.97;;;32.10;74.20;;;;;;5091384;28;20043;-67
2023/06/30 07:58:57;;;;;;;16.67;7.75;;;32.00;74.10;;;;;;5091368;28;20043;-65
2023/06/30 08:02:01;;;;;;;16.52;8.05;;;31.70;74.80;;;;;;5091491;28;20039;-66
2023/06/30 08:05:05;;;;;;;14.60;7.90;;;31.80;75.50;;;;;;5090478;28;20047;-67
2023/06/30 08:08:09;;;;;;;16.23;7.88;;;32.00;75.90;;;;;;5090876;28;20051;-66
2023/06/30 08:11:13;;;;;;;15.10;7.55;;;32.20;75.80;;;;;;5091175;28;20667;-67
2023/06/30 08:14:17;;;;;;;22.50;9.60;;;32.40;75.20;;;;;;5091075;28;20051;-69
2023/06/30 08:17:20;;;;;;;20.20;9.60;;;32.60;75.30;;;;;;5090919;28;20099;-67
2023/06/30 08:20:24;;;;;;;17.20;9.57;;;32.50;75.40;;;;;;5090384;28;20388;-67
2023/06/30 08:23:29;;;;;;;18.88;9.77;;;32.20;76.50;;;;;;5090886;28;20047;-67
2023/06/30 08:26:32;;;;;;;14.60;9.25;;;32.30;76.60;;;;;;5090640;28;20043;-69
2023/06/30 08:29:37;;;;;;;25.17;11.50;;;32.50;77.30;;;;;;5090723;28;20054;-68
2023/06/30 08:32:42;;;;;;;22.67;10.05;;;32.50;76.80;;;;;;5091085;28;20491;-68
2023/06/30 08:35:46;;;;;;;20.10;10.55;;;32.60;76.00;;;;;;5090707;28;20059;-67
2023/06/30 08:38:50;;;;;;;18.60;10.35;;;32.60;76.20;;;;;;5090738;28;20055;-69
2023/06/30 08:41:55;;;;;;;17.48;9.77;;;32.50;75.80;;;;;;5090723;28;20494;-67
2023/06/30 08:44:59;;;;;;;17.48;10.07;;;32.50;76.30;;;;;;5094106;28;20043;-69
2023/06/30 08:48:07;;;;;;;14.98;8.52;;;32.60;75.90;;;;;;5094939;28;20507;-70
2023/06/30 08:51:11;;;;;;;14.93;9.20;;;32.70;74.50;;;;;;5094890;28;20387;-67
2023/06/30 08:54:16;;;;;;;11.75;7.63;;;32.80;74.80;;;;;;5094661;28;20400;-67
2023/06/30 08:57:20;;;;;;;17.55;8.15;;;32.80;74.20;;;;;;5094657;28;20051;-66
2023/06/30 09:00:25;;;;;;;16.55;8.68;;;32.80;73.80;;;;;;5093943;28;20085;-66
2023/06/30 09:03:30;;;;;;;12.40;7.18;;;32.80;73.40;;;;;;5094769;28;20495;-67
2023/06/30 09:06:37;;;;;;;15.25;7.30;;;32.90;73.10;;;;;;5094254;28;20035;-67
2023/06/30 09:09:44;;;;;;;12.25;6.60;;;33.00;71.90;;;;;;5094321;28;20059;-67
2023/06/30 09:12:51;;;;;;;14.95;7.43;;;33.00;71.60;;;;;;5094336;28;20062;-65
2023/06/30 09:15:56;;;;;;;10.32;6.20;;;33.20;71.70;;;;;;5094133;28;20578;-67
2023/06/30 09:19:00;;;;;;;17.23;6.68;;;33.20;70.20;;;;;;5094111;28;20640;-66
2023/06/30 09:22:05;;;;;;;16.08;7.25;;;33.30;70.00;;;;;;5093841;28;20070;-66
2023/06/30 09:25:27;;;;;;;15.90;7.05;;;33.30;69.60;;;;;;5094225;28;20651;-66
2023/06/30 09:28:35;;;;;;;12.60;6.50;;;33.20;68.40;;;;;;5093784;28;20071;-67
2023/06/30 09:31:39;;;;;;;12.10;6.93;;;33.20;71.40;;;;;;5094199;28;20063;-67
2023/06/30 09:34:43;;;;;;;10.15;6.20;;;33.10;70.80;;;;;;5093757;28;20043;-65
2023/06/30 09:37:47;;;;;;;12.05;6.53;;;33.10;68.10;;;;;;5093936;28;20051;-66
2023/06/30 09:40:52;;;;;;;15.05;6.72;;;33.10;70.60;;;;;;5093852;28;20051;-66
2023/06/30 09:43:57;;;;;;;16.25;6.93;;;34.50;69.30;;;;;;5094146;28;20064;-68
2023/06/30 09:47:01;;;;;;;22.92;7.63;;;35.60;67.50;;;;;;5093689;28;20412;-68
2023/06/30 09:50:06;;;;;;;12.55;6.30;;;36.00;67.30;;;;;;5093647;28;20466;-66
2023/06/30 09:53:09;;;;;;;16.27;7.75;;;36.60;64.70;;;;;;5093518;28;20043;-66
2023/06/30 09:56:23;;;;;;;18.98;6.22;;;36.90;63.90;;;;;;5093227;28;20051;-66
2023/06/30 09:59:28;;;;;;;19.70;6.60;;;36.90;64.70;;;;;;5093720;28;20498;-67
2023/06/30 10:02:32;;;;;;;13.30;6.53;;;37.10;64.30;;;;;;5093333;28;20047;-67
2023/06/30 10:05:38;;;;;;;11.90;6.43;;;37.50;63.80;;;;;;5093379;28;20039;-67
2023/06/30 10:08:43;;;;;;;12.55;6.60;;;37.50;64.70;;;;;;5093319;28;20059;-69
2023/06/30 10:11:53;;;;;;;14.38;6.88;;;37.60;64.30;;;;;;5093524;28;20205;-68
2023/06/30 10:14:58;;;;;;;30.05;8.55;;;37.50;63.40;;;;;;5092765;28;20039;-69
2023/06/30 10:18:03;;;;;;;20.67;8.95;;;37.40;64.10;;;;;;5093015;28;20413;-69
2023/06/30 10:21:07;;;;;;;13.88;6.80;;;37.10;63.70;;;;;;5093162;28;20514;-69
2023/06/30 10:24:13;;;;;;;13.77;6.65;;;36.90;64.20;;;;;;5092690;28;20043;-68
2023/06/30 10:27:19;;;;;;;13.63;6.72;;;37.00;64.60;;;;;;5092824;28;20059;-67
2023/06/30 10:30:24;;;;;;;25.27;7.35;;;36.80;64.40;;;;;;5092624;28;20079;-69
2023/06/30 10:33:28;;;;;;;19.33;7.60;;;36.60;65.80;;;;;;5092709;28;20051;-68
2023/06/30 10:36:33;;;;;;;19.77;7.07;;;36.80;64.80;;;;;;5092606;28;20043;-67
2023/06/30 10:39:37;;;;;;;15.70;6.60;;;36.80;67.40;;;;;;5092468;28;20051;-68
2023/06/30 10:42:41;;;;;;;17.27;7.68;;;37.00;67.50;;;;;;5092755;28;20043;-67
2023/06/30 10:46:08;;;;;;;23.10;7.53;;;37.20;67.70;;;;;;5092315;28;20035;-67
2023/06/30 10:49:19;;;;;;;14.93;6.75;;;36.80;66.70;;;;;;5092200;28;20498;-67
2023/06/30 10:52:31;;;;;;;13.23;6.60;;;36.20;67.00;;;;;;5090465;28;20039;-67
2023/06/30 10:55:42;;;;;;;11.57;6.57;;;35.60;68.60;;;;;;5090489;28;20047;-67
2023/06/30 10:58:46;;;;;;;9.15;6.30;;;35.10;69.90;;;;;;5090740;28;20027;-67
2023/06/30 11:02:29;;;;;;;12.55;6.38;;;34.70;69.70;;;;;;5091817;28;20046;-67
2023/06/30 11:05:34;;;;;;;18.05;6.55;;;34.50;70.60;;;;;;5052063;28;20579;-67
2023/06/30 11:08:38;;;;;;;12.35;6.80;;;34.30;70.60;;;;;;5092383;28;20058;-67
2023/06/30 11:11:50;;;;;;;10.02;5.95;;;34.10;71.20;;;;;;5092136;28;20047;-67
2023/06/30 11:15:01;;;;;;;12.90;5.75;;;34.00;72.00;;;;;;5092141;28;20042;-66
2023/06/30 11:18:21;;;;;;;11.48;6.15;;;33.90;72.50;;;;;;5091936;28;20051;-67
2023/06/30 11:21:25;;;;;;;17.88;6.15;;;33.80;70.60;;;;;;5091930;28;20051;-67
2023/06/30 11:24:29;;;;;;;10.65;6.07;;;33.70;71.50;;;;;;5091930;28;20055;-66
2023/06/30 11:27:33;;;;;;;9.50;6.43;;;33.60;71.40;;;;;;5091480;28;20043;-67
2023/06/30 11:30:38;;;;;;;15.32;6.32;;;33.40;72.10;;;;;;5091644;28;20054;-66
2023/06/30 11:33:43;;;;;;;8.10;5.63;;;33.40;71.40;;;;;;5091633;28;20498;-66
2023/06/30 11:36:47;;;;;;;8.80;6.03;;;33.30;71.40;;;;;;5091841;28;20039;-67
2023/06/30 11:39:53;;;;;;;18.95;6.57;;;33.20;72.20;;;;;;5091626;28;20051;-66
2023/06/30 11:43:02;;;;;;;10.10;6.30;;;33.20;72.10;;;;;;5091886;28;20047;-66
2023/06/30 11:46:06;;;;;;;10.75;6.25;;;33.10;72.20;;;;;;5091611;28;20047;-66
2023/06/30 11:49:10;;;;;;;12.27;6.63;;;33.10;72.10;;;;;;5091308;28;20059;-66
2023/06/30 11:52:15;;;;;;;19.40;8.20;;;33.00;72.20;;;;;;5091576;28;20396;-66
2023/06/30 11:55:20;;;;;;;11.32;6.60;;;32.90;72.20;;;;;;5091377;28;20058;-65
2023/06/30 11:58:25;;;;;;;19.48;7.70;;;33.40;72.10;;;;;;5091232;28;20047;-66
2023/06/30 12:01:29;;;;;;;15.73;5.80;;;34.70;71.00;;;;;;5091123;28;20051;-65
2023/06/30 12:04:34;;;;;;;20.90;6.72;;;35.70;68.40;;;;;;5090983;28;20054;-66
2023/06/30 12:07:38;;;;;;;23.88;6.82;;;35.80;67.80;;;;;;5091081;28;20391;-67
2023/06/30 12:10:42;;;;;;;11.85;6.78;;;36.00;67.50;;;;;;5091206;28;20055;-66
2023/06/30 12:13:47;;;;;;;12.25;6.80;;;36.00;66.90;;;;;;5091101;28;20039;-66
2023/06/30 12:16:51;;;;;;;11.70;7.20;;;36.20;67.50;;;;;;5091185;28;20039;-66
2023/06/30 12:19:56;;;;;;;9.90;6.03;;;35.90;67.40;;;;;;5091118;28;20064;-66
2023/06/30 12:23:00;;;;;;;11.55;6.60;;;35.70;67.50;;;;;;5091127;28;20047;-68
2023/06/30 12:26:04;;;;;;;12.50;7.05;;;35.60;68.50;;;;;;5090744;28;20039;-66
2023/06/30 12:29:08;;;;;;;15.23;6.22;;;36.10;68.00;;;;;;5090380;28;20051;-68
2023/06/30 12:32:15;;;;;;;20.98;7.50;;;35.90;68.10;;;;;;5090805;28;20039;-68
2023/06/30 12:35:30;;;;;;;16.40;6.85;;;35.30;69.30;;;;;;5090108;28;20039;-67
2023/06/30 12:38:33;;;;;;;10.73;6.22;;;34.70;69.90;;;;;;5090625;28;20059;-67
2023/06/30 12:41:37;;;;;;;10.20;6.97;;;34.10;70.00;;;;;;5091022;28;20487;-67
2023/06/30 12:44:41;;;;;;;11.95;6.88;;;33.80;71.90;;;;;;5090861;28;20047;-67
2023/06/30 12:47:45;;;;;;;10.82;6.43;;;33.50;72.20;;;;;;5090742;28;20423;-67
2023/06/30 12:50:49;;;;;;;19.73;14.27;;;33.20;72.10;;;;;;5090963;28;20055;-67
2023/06/30 12:53:53;;;;;;;12.77;7.25;;;33.10;73.00;;;;;;5090791;28;20043;-67
2023/06/30 12:56:57;;;;;;;24.23;7.45;;;33.00;73.10;;;;;;5091010;28;20067;-67
2023/06/30 13:00:06;;;;;;;14.10;6.80;;;32.90;73.00;;;;;;5089824;28;20039;-67
2023/06/30 13:03:10;;;;;;;21.30;7.97;;;32.90;73.60;;;;;;5090830;28;20055;-67
2023/06/30 13:06:14;;;;;;;16.50;7.60;;;32.70;74.60;;;;;;5090676;28;20067;-67
2023/06/30 13:09:18;;;;;;;13.50;6.75;;;32.70;75.00;;;;;;5090506;28;20063;-68
2023/06/30 13:12:25;;;;;;;13.30;7.35;;;32.60;75.50;;;;;;5090628;28;20474;-68
2023/06/30 13:15:29;;;;;;;12.40;7.35;;;32.60;75.70;;;;;;5090708;28;20051;-68
2023/06/30 13:18:33;;;;;;;16.52;7.15;;;32.50;75.40;;;;;;5090413;28;20043;-67
2023/06/30 13:21:37;;;;;;;11.88;7.07;;;32.50;75.50;;;;;;5090545;28;20035;-67
2023/06/30 13:24:45;;;;;;;15.65;7.85;;;32.40;76.20;;;;;;5090319;28;20047;-67
2023/06/30 13:27:50;;;;;;;15.70;7.13;;;32.40;76.50;;;;;;5090203;28;20510;-67
2023/06/30 13:30:54;;;;;;;12.75;6.70;;;32.40;76.20;;;;;;5093146;28;20055;-67
2023/06/30 13:33:58;;;;;;;17.88;7.70;;;32.40;76.50;;;;;;5094269;28;20482;-67
2023/06/30 13:37:02;;;;;;;13.75;7.57;;;32.30;76.90;;;;;;5093935;28;20051;-67
2023/06/30 13:40:07;;;;;;;16.50;7.28;;;32.20;77.30;;;;;;5093903;28;20047;-67
2023/06/30 13:43:10;;;;;;;19.92;8.13;;;32.20;77.30;;;;;;5093170;28;20055;-67
2023/06/30 13:46:14;;;;;;;18.30;8.13;;;32.10;77.40;;;;;;5093712;28;20046;-67
2023/06/30 13:49:18;;;;;;;22.58;7.85;;;32.10;77.90;;;;;;5093632;28;20055;-67
2023/06/30 13:52:22;;;;;;;13.77;7.93;;;32.00;78.30;;;;;;5094046;28;20059;-67
2023/06/30 13:55:26;;;;;;;15.13;8.10;;;32.00;77.90;;;;;;5093323;28;20047;-67
2023/06/30 13:58:30;;;;;;;20.10;8.48;;;31.90;78.30;;;;;;5093605;28;20043;-68
2023/06/30 14:01:35;;;;;;;18.73;8.50;;;31.90;78.50;;;;;;5094227;28;20059;-67
2023/06/30 14:04:38;;;;;;;24.45;7.85;;;31.90;78.00;;;;;;5093509;28;20043;-67
2023/06/30 14:07:42;;;;;;;12.60;8.05;;;31.80;78.80;;;;;;5093437;28;20043;-67
2023/06/30 14:10:46;;;;;;;18.73;7.95;;;31.90;79.10;;;;;;5093122;28;20051;-67
2023/06/30 14:13:50;;;;;;;14.98;7.70;;;31.80;78.50;;;;;;5093210;28;20054;-67
2023/06/30 14:16:54;;;;;;;20.23;7.55;;;31.80;78.90;;;;;;5093642;28;20050;-67
2023/06/30 14:19:59;;;;;;;15.70;7.75;;;31.80;78.90;;;;;;5093010;28;20213;-66
2023/06/30 14:23:03;;;;;;;11.52;6.82;;;31.70;79.00;;;;;;5092985;28;20383;-66
2023/06/30 14:26:07;;;;;;;17.35;8.50;;;31.70;78.20;;;;;;5092385;28;20047;-69
2023/06/30 14:29:11;;;;;;;18.02;7.93;;;31.60;78.70;;;;;;5091273;28;20074;-70
2023/06/30 14:32:16;;;;;;;16.90;7.85;;;32.30;78.10;;;;;;5079372;28;20043;-69
2023/06/30 14:35:20;;;;;;;12.85;6.93;;;32.80;75.90;;;;;;5091301;28;20066;-70
2023/06/30 14:54:23;;;;;;;17.40;7.75;;;33.30;74.80;;;;;;5088098;28;20392;-71
2023/06/30 14:57:27;;;;;;;25.08;8.95;;;33.70;75.00;;;;;;5087597;28;20036;-70
2023/06/30 15:00:33;;;;;;;14.15;7.40;;;34.00;75.20;;;;;;5088173;28;20055;-71
2023/06/30 15:03:40;;;;;;;36.45;25.30;;;33.70;75.40;;;;;;5087880;28;20119;-70
2023/06/30 15:20:33;;;;;;;16.30;8.27;;;33.70;74.60;;;;;;5067872;28;20383;-72
2023/06/30 15:23:37;;;;;;;14.75;8.23;;;32.70;78.00;;;;;;5068016;28;20449;-70
2023/06/30 15:26:41;;;;;;;13.48;8.98;;;32.90;77.00;;;;;;5066724;28;20045;-72
2023/06/30 15:29:45;;;;;;;14.10;8.50;;;32.60;76.60;;;;;;5067735;28;20547;-71
2023/06/30 15:32:49;;;;;;;23.92;9.32;;;32.20;77.70;;;;;;5067763;28;20039;-70
2023/06/30 15:35:53;;;;;;;15.10;7.95;;;31.90;77.60;;;;;;5067958;28;20047;-71
2023/06/30 15:38:57;;;;;;;25.13;9.48;;;31.50;79.30;;;;;;5067364;28;20523;-71
2023/06/30 15:42:01;;;;;;;18.42;8.55;;;31.30;80.70;;;;;;5067539;28;20048;-71
2023/06/30 15:45:06;;;;;;;23.02;9.57;;;31.20;80.60;;;;;;5067415;28;20048;-71
2023/06/30 15:48:15;;;;;;;15.32;8.80;;;31.10;80.40;;;;;;5067594;28;20055;-71
2023/06/30 15:51:19;;;;;;;12.57;8.25;;;31.00;80.50;;;;;;5067596;28;20055;-71
2023/06/30 15:54:24;;;;;;;12.43;8.20;;;30.90;80.80;;;;;;5067731;28;20047;-71
2023/06/30 15:57:27;;;;;;;13.80;7.75;;;30.80;81.50;;;;;;5067843;28;20435;-70
2023/06/30 16:00:31;;;;;;;15.60;8.43;;;30.70;81.50;;;;;;5066429;28;20051;-71
2023/06/30 16:03:37;;;;;;;19.05;9.05;;;30.70;81.70;;;;;;5064243;28;20048;-71
2023/06/30 16:06:42;;;;;;;15.07;8.63;;;30.70;82.00;;;;;;5064684;28;20051;-74
2023/06/30 16:09:46;;;;;;;19.52;8.65;;;30.70;81.90;;;;;;5065189;28;20067;-75
2023/06/30 16:12:53;;;;;;;19.08;8.90;;;30.60;81.40;;;;;;5065250;28;20040;-69
2023/06/30 16:15:57;;;;;;;21.00;8.88;;;30.60;81.80;;;;;;5065065;28;20555;-71
2023/06/30 16:19:01;;;;;;;11.25;8.93;;;30.60;82.20;;;;;;5064682;28;20048;-73
2023/06/30 16:22:06;;;;;;;13.63;8.63;;;30.60;82.20;;;;;;5052027;28;20044;-71